createdAt,value
2022-10-21T00:01:24.447Z,26.56
2022-10-21T00:03:54.616Z,26.39
2022-10-21T00:06:25.132Z,26.44
2022-10-21T00:08:55.228Z,26.11
2022-10-21T00:11:25.938Z,25.93
2022-10-21T00:13:58.152Z,25.90
2022-10-21T00:16:28.687Z,26.24
2022-10-21T00:18:58.955Z,26.38
2022-10-21T00:21:29.506Z,26.25
2022-10-21T00:23:59.575Z,26.59
2022-10-21T00:26:31.243Z,25.84
2022-10-21T00:29:02.754Z,25.06
2022-10-21T00:31:32.550Z,24.95
2022-10-21T00:34:05.073Z,26.18
2022-10-21T00:36:35.131Z,26.55
2022-10-21T00:39:07.775Z,26.42
2022-10-21T00:41:37.897Z,25.20
2022-10-21T00:44:12.385Z,25.44
2022-10-21T00:47:07.821Z,25.23
2022-10-21T00:49:51.059Z,24.80
2022-10-21T00:52:24.911Z,24.77
2022-10-21T00:54:58.146Z,25.48
2022-10-21T00:57:30.546Z,26.21
2022-10-21T01:00:03.940Z,26.35
2022-10-21T01:02:34.077Z,26.68
2022-10-21T01:05:06.067Z,25.83
2022-10-21T01:07:40.288Z,25.51
2022-10-21T01:10:11.815Z,24.88
2022-10-21T01:12:59.530Z,25.26
2022-10-21T01:15:35.401Z,25.28
2022-10-21T01:18:22.554Z,26.19
2022-10-21T01:21:12.263Z,26.26
2022-10-21T01:23:51.316Z,26.93
2022-10-21T01:26:55.504Z,27.22
2022-10-21T01:29:52.724Z,26.99
2022-10-21T01:32:38.580Z,27.16
2022-10-21T01:35:22.200Z,27.31
2022-10-21T01:38:18.306Z,27.37
2022-10-21T01:41:26.662Z,27.12
2022-10-21T01:44:20.418Z,27.55
2022-10-21T01:47:12.952Z,27.43
2022-10-21T01:49:50.821Z,26.98
2022-10-21T01:52:21.151Z,26.69
2022-10-21T01:55:00.162Z,26.97
2022-10-21T01:57:34.715Z,27.33
2022-10-21T02:00:08.050Z,26.90
2022-10-21T02:02:43.834Z,26.89
2022-10-21T02:05:24.098Z,27.25
2022-10-21T02:07:54.140Z,27.25
2022-10-21T02:10:27.658Z,26.96
2022-10-21T02:13:02.330Z,27.11
2022-10-21T02:15:35.041Z,27.39
2022-10-21T02:18:11.858Z,27.20
2022-10-21T02:20:44.769Z,26.98
2022-10-21T02:23:18.304Z,26.97
2022-10-21T02:25:50.752Z,27.23
2022-10-21T02:28:21.654Z,27.35
2022-10-21T02:31:05.010Z,27.31
2022-10-21T02:33:44.077Z,27.46
2022-10-21T02:36:20.133Z,27.69
2022-10-21T02:38:55.580Z,27.82
2022-10-21T02:41:28.878Z,27.55
2022-10-21T02:44:02.270Z,27.85
2022-10-21T02:46:42.203Z,28.08
2022-10-21T02:49:12.362Z,28.11
2022-10-21T02:51:44.536Z,27.78
2022-10-21T02:54:14.962Z,27.92
2022-10-21T02:56:45.509Z,28.21
2022-10-21T02:59:15.644Z,28.22
2022-10-21T03:01:46.184Z,27.94
2022-10-21T03:04:16.195Z,27.58
2022-10-21T03:06:46.777Z,27.49
2022-10-21T03:09:16.755Z,27.83
2022-10-21T03:11:46.558Z,27.62
2022-10-21T03:14:17.093Z,27.72
2022-10-21T03:16:47.174Z,28.03
2022-10-21T03:19:17.578Z,27.92
2022-10-21T03:21:47.577Z,27.87
2022-10-21T03:24:28.093Z,27.54
2022-10-21T03:26:59.072Z,27.75
2022-10-21T03:29:29.595Z,27.80
2022-10-21T03:31:59.687Z,27.70
2022-10-21T03:34:31.683Z,27.45
2022-10-21T03:37:01.732Z,27.10
2022-10-21T03:39:32.138Z,27.11
2022-10-21T03:42:02.229Z,27.00
2022-10-21T03:44:32.742Z,26.99
2022-10-21T03:47:02.811Z,26.90
2022-10-21T03:49:32.309Z,27.05
2022-10-21T03:52:03.971Z,27.16
2022-10-21T03:54:34.149Z,26.94
2022-10-21T03:57:04.707Z,26.80
2022-10-21T03:59:34.703Z,26.69
2022-10-21T04:02:05.363Z,26.89
2022-10-21T04:04:36.517Z,26.84
2022-10-21T04:07:07.452Z,26.70
2022-10-21T04:09:38.118Z,26.82
2022-10-21T04:12:08.590Z,26.47
2022-10-21T04:14:38.656Z,26.52
2022-10-21T04:17:09.137Z,26.51
2022-10-21T04:19:39.254Z,26.59
2022-10-21T04:22:09.726Z,26.64
2022-10-21T04:24:39.847Z,26.50
2022-10-21T04:27:10.318Z,26.90
2022-10-21T04:29:40.417Z,27.16
2022-10-21T04:32:10.901Z,26.85
2022-10-21T04:34:40.165Z,26.63
2022-10-21T04:37:10.225Z,26.60
2022-10-21T04:39:40.662Z,26.59
2022-10-21T04:42:10.702Z,25.88
2022-10-21T04:44:41.176Z,25.66
2022-10-21T04:47:11.288Z,26.04
2022-10-21T04:49:41.852Z,26.00
2022-10-21T04:52:12.201Z,25.90
2022-10-21T04:54:44.750Z,25.91
2022-10-21T04:57:15.873Z,26.08
2022-10-21T04:59:46.185Z,26.06
2022-10-21T05:02:15.719Z,25.65
2022-10-21T05:04:45.424Z,25.59
2022-10-21T05:07:16.021Z,25.57
2022-10-21T05:09:45.988Z,25.23
2022-10-21T05:12:16.346Z,24.82
2022-10-21T05:14:45.782Z,25.10
2022-10-21T05:17:15.459Z,25.27
2022-10-21T05:19:45.852Z,24.93
2022-10-21T05:22:15.636Z,24.75
2022-10-21T05:24:46.035Z,24.96
2022-10-21T05:27:15.999Z,25.18
2022-10-21T05:29:46.520Z,25.30
2022-10-21T05:32:16.482Z,25.51
2022-10-21T05:34:46.930Z,25.93
2022-10-21T05:37:16.692Z,26.01
2022-10-21T05:39:47.199Z,25.95
2022-10-21T05:42:17.314Z,26.24
2022-10-21T05:44:47.751Z,26.56
2022-10-21T05:47:17.856Z,26.44
2022-10-21T05:49:48.474Z,26.15
2022-10-21T05:52:18.413Z,26.51
2022-10-21T05:54:48.804Z,26.66
2022-10-21T05:57:18.785Z,26.51
2022-10-21T05:59:48.677Z,26.24
2022-10-21T06:02:19.150Z,26.31
2022-10-21T06:04:49.073Z,26.48
2022-10-21T06:07:19.478Z,26.24
2022-10-21T06:09:54.688Z,25.93
2022-10-21T06:12:25.586Z,26.10
2022-10-21T06:14:55.214Z,26.28
2022-10-21T06:17:25.248Z,25.97
2022-10-21T06:19:55.570Z,25.55
2022-10-21T06:22:25.031Z,25.68
2022-10-21T06:24:54.969Z,25.68
2022-10-21T06:27:25.276Z,25.45
2022-10-21T06:29:54.750Z,25.70
2022-10-21T06:32:24.467Z,25.71
2022-10-21T06:34:55.494Z,25.62
2022-10-21T06:37:25.449Z,25.39
2022-10-21T06:39:55.824Z,25.09
2022-10-21T06:42:25.637Z,25.16
2022-10-21T06:44:57.947Z,25.11
2022-10-21T06:47:30.189Z,25.10
2022-10-21T06:50:05.229Z,25.35
2022-10-21T06:52:37.639Z,25.67
2022-10-21T06:55:08.833Z,25.68
2022-10-21T06:57:39.122Z,25.86
2022-10-21T07:00:10.432Z,25.89
2022-10-21T07:02:40.908Z,26.00
2022-10-21T07:05:13.567Z,25.60
2022-10-21T07:07:43.763Z,26.12
2022-10-21T07:10:16.325Z,26.37
2022-10-21T07:12:47.917Z,26.24
2022-10-21T07:15:18.340Z,26.12
2022-10-21T07:17:48.286Z,26.42
2022-10-21T07:20:18.713Z,26.48
2022-10-21T07:22:48.621Z,26.27
2022-10-21T07:25:19.121Z,26.22
2022-10-21T07:27:50.786Z,26.61
2022-10-21T07:30:21.235Z,26.59
2022-10-21T07:32:52.101Z,26.35
2022-10-21T07:35:22.475Z,26.11
2022-10-21T07:37:52.478Z,25.67
2022-10-21T07:40:23.116Z,25.33
2022-10-21T07:42:53.173Z,25.05
2022-10-21T07:45:23.730Z,24.79
2022-10-21T07:47:53.735Z,24.74
2022-10-21T07:50:24.124Z,24.49
2022-10-21T07:53:01.312Z,24.38
2022-10-21T07:55:39.104Z,24.64
2022-10-21T07:58:08.538Z,24.71
2022-10-21T08:00:39.299Z,24.56
2022-10-21T08:03:09.722Z,24.59
2022-10-21T08:05:42.424Z,24.95
2022-10-21T08:08:12.810Z,25.02
2022-10-21T08:10:43.532Z,24.81
2022-10-21T08:13:13.975Z,24.98
2022-10-21T08:15:48.382Z,25.24
2022-10-21T08:18:19.653Z,24.78
2022-10-21T08:20:51.135Z,24.75
2022-10-21T08:23:23.476Z,25.03
2022-10-21T08:25:59.152Z,24.94
2022-10-21T08:28:31.505Z,25.01
2022-10-21T08:31:21.917Z,25.23
2022-10-21T08:33:52.479Z,25.52
2022-10-21T08:36:26.260Z,25.34
2022-10-21T08:39:00.115Z,25.28
2022-10-21T08:41:33.096Z,25.66
2022-10-21T08:44:03.520Z,25.77
2022-10-21T08:46:53.254Z,25.60
2022-10-21T08:49:32.090Z,25.53
2022-10-21T08:52:27.591Z,25.95
2022-10-21T08:55:01.947Z,25.98
2022-10-21T08:57:36.270Z,25.85
2022-10-21T09:00:24.341Z,26.50
2022-10-21T09:03:14.562Z,26.68
2022-10-21T09:06:02.669Z,26.25
2022-10-21T09:08:45.132Z,26.38
2022-10-21T09:11:35.554Z,26.79
2022-10-21T09:14:11.137Z,26.64
2022-10-21T09:17:08.407Z,25.98
2022-10-21T09:19:54.887Z,25.77
2022-10-21T09:22:50.333Z,26.21
2022-10-21T09:25:36.641Z,25.76
2022-10-21T09:28:17.517Z,25.29
2022-10-21T09:30:48.284Z,25.91
2022-10-21T09:33:30.109Z,24.60
2022-10-21T09:36:14.479Z,24.61
2022-10-21T09:38:47.239Z,24.76
2022-10-21T09:41:24.405Z,24.80
2022-10-21T09:43:57.223Z,24.61
2022-10-21T09:46:27.373Z,25.25
2022-10-21T09:49:41.997Z,25.96
2022-10-21T09:51:53.427Z,25.24
2022-10-21T09:54:27.021Z,25.15
2022-10-21T09:57:15.757Z,26.22
2022-10-21T09:59:54.593Z,27.03
2022-10-21T10:02:34.996Z,27.26
2022-10-21T10:05:45.060Z,27.03
2022-10-21T10:08:26.458Z,27.49
2022-10-21T10:11:18.772Z,27.63
2022-10-21T10:13:54.056Z,27.61
2022-10-21T10:16:30.068Z,27.78
2022-10-21T10:19:18.581Z,28.25
2022-10-21T10:22:10.310Z,28.08
2022-10-21T10:24:41.903Z,27.63
2022-10-21T10:27:22.048Z,27.72
2022-10-21T10:29:57.865Z,27.71
2022-10-21T10:32:33.403Z,27.88
2022-10-21T10:35:07.602Z,27.61
2022-10-21T10:37:39.525Z,27.83
2022-10-21T10:40:10.982Z,28.67
2022-10-21T10:42:47.066Z,29.64
2022-10-21T10:45:21.501Z,29.89
2022-10-21T10:48:00.896Z,30.29
2022-10-21T10:50:40.015Z,31.36
2022-10-21T10:53:31.199Z,31.84
2022-10-21T10:56:30.004Z,33.00
2022-10-21T10:59:36.902Z,32.98
2022-10-21T11:02:11.114Z,32.62
2022-10-21T11:04:43.580Z,31.69
2022-10-21T11:07:17.339Z,32.12
2022-10-21T11:09:54.307Z,32.41
2022-10-21T11:12:28.218Z,32.74
2022-10-21T11:15:00.666Z,32.58
2022-10-21T11:17:42.422Z,32.85
2022-10-21T11:20:30.080Z,32.64
2022-10-21T11:23:36.131Z,32.68
2022-10-21T11:26:29.287Z,33.48
2022-10-21T11:29:25.535Z,32.40
2022-10-21T11:32:32.241Z,32.17
2022-10-21T11:35:25.952Z,31.75
2022-10-21T11:38:17.298Z,31.67
2022-10-21T11:41:27.190Z,31.90
2022-10-21T11:44:04.790Z,32.11
2022-10-21T11:47:31.523Z,31.91
2022-10-21T11:50:42.687Z,32.21
2022-10-21T11:53:16.829Z,33.05
2022-10-21T11:56:09.413Z,32.90
2022-10-21T11:58:57.507Z,32.93
2022-10-21T12:01:47.942Z,32.26
2022-10-21T12:04:21.672Z,31.97
2022-10-21T12:07:11.335Z,31.93
2022-10-21T12:09:45.714Z,32.27
2022-10-21T12:12:20.806Z,31.65
2022-10-21T12:14:51.376Z,30.92
2022-10-21T12:17:23.616Z,30.41
2022-10-21T12:20:08.270Z,31.32
2022-10-21T12:22:40.162Z,32.58
2022-10-21T12:25:29.181Z,34.08
2022-10-21T12:28:28.434Z,34.31
2022-10-21T12:31:25.500Z,35.77
2022-10-21T12:33:56.343Z,36.47
2022-10-21T12:36:26.904Z,36.10
2022-10-21T12:38:59.008Z,35.29
2022-10-21T12:41:35.312Z,34.21
2022-10-21T12:44:09.035Z,33.44
2022-10-21T12:46:42.901Z,32.59
2022-10-21T12:49:18.868Z,32.52
2022-10-21T12:51:57.091Z,32.42
2022-10-21T12:54:39.267Z,32.78
2022-10-21T12:57:13.098Z,32.65
2022-10-21T12:59:44.777Z,32.89
2022-10-21T13:02:29.344Z,33.39
2022-10-21T13:05:00.095Z,34.51
2022-10-21T13:07:33.360Z,34.00
2022-10-21T13:10:03.660Z,34.50
2022-10-21T13:12:35.167Z,34.21
2022-10-21T13:15:25.571Z,33.61
2022-10-21T13:17:59.336Z,33.02
2022-10-21T13:20:35.167Z,32.15
2022-10-21T13:23:32.811Z,30.85
2022-10-21T13:26:13.912Z,30.94
2022-10-21T13:28:56.904Z,30.81
2022-10-21T13:31:27.412Z,30.71
2022-10-21T13:33:58.111Z,31.20
2022-10-21T13:36:42.161Z,32.35
2022-10-21T13:39:24.295Z,32.28
2022-10-21T13:42:06.687Z,31.61
2022-10-21T13:44:42.773Z,31.35
2022-10-21T13:47:31.551Z,30.48
2022-10-21T13:50:29.635Z,31.06
2022-10-21T13:53:02.720Z,30.01
2022-10-21T13:55:33.562Z,29.56
2022-10-21T13:58:04.036Z,29.42
2022-10-21T14:00:34.721Z,29.89
2022-10-21T14:03:07.201Z,30.24
2022-10-21T14:05:47.567Z,30.08
2022-10-21T14:08:29.120Z,29.99
2022-10-21T14:11:06.551Z,30.05
2022-10-21T14:13:38.990Z,30.59
2022-10-21T14:16:10.967Z,30.43
2022-10-21T14:18:49.126Z,30.65
2022-10-21T14:21:27.580Z,29.94
2022-10-21T14:23:59.416Z,30.20
2022-10-21T14:26:33.850Z,30.77
2022-10-21T14:29:05.282Z,31.26
2022-10-21T14:31:35.679Z,31.06
2022-10-21T14:34:08.377Z,30.82
2022-10-21T14:37:10.932Z,31.64
2022-10-21T14:39:42.558Z,31.88
2022-10-21T14:42:21.701Z,31.88
2022-10-21T14:44:56.038Z,32.11
2022-10-21T14:47:28.184Z,33.15
2022-10-21T14:50:02.119Z,33.19
2022-10-21T14:52:40.191Z,33.68
2022-10-21T14:55:16.213Z,33.19
2022-10-21T14:57:54.480Z,32.32
2022-10-21T15:00:44.198Z,31.84
2022-10-21T15:03:15.350Z,32.36
2022-10-21T15:05:49.352Z,32.83
2022-10-21T15:08:22.585Z,33.62
2022-10-21T15:10:58.999Z,33.16
2022-10-21T15:13:29.546Z,32.63
2022-10-21T15:16:01.453Z,32.90
2022-10-21T15:18:41.886Z,31.53
2022-10-21T15:21:16.603Z,30.84
2022-10-21T15:23:58.850Z,30.72
2022-10-21T15:26:36.852Z,30.77
2022-10-21T15:29:20.651Z,31.98
2022-10-21T15:31:51.034Z,32.02
2022-10-21T15:34:21.635Z,33.25
2022-10-21T15:36:52.150Z,34.30
2022-10-21T15:39:22.166Z,34.77
2022-10-21T15:41:57.509Z,34.18
2022-10-21T15:44:32.717Z,33.41
2022-10-21T15:47:06.645Z,32.75
2022-10-21T15:49:42.279Z,33.96
2022-10-21T15:52:13.146Z,34.47
2022-10-21T15:54:43.950Z,34.59
2022-10-21T15:57:22.721Z,35.58
2022-10-21T15:59:52.756Z,35.88
2022-10-21T16:02:23.129Z,34.70
2022-10-21T16:04:54.634Z,33.42
2022-10-21T16:07:37.088Z,33.42
2022-10-21T16:10:30.678Z,32.94
2022-10-21T16:13:01.289Z,32.60
2022-10-21T16:15:31.796Z,33.67
2022-10-21T16:18:02.229Z,35.25
2022-10-21T16:20:34.663Z,36.36
2022-10-21T16:23:05.771Z,35.66
2022-10-21T16:25:36.209Z,35.45
2022-10-21T16:28:20.630Z,35.58
2022-10-21T16:30:54.690Z,34.94
2022-10-21T16:33:25.039Z,34.27
2022-10-21T16:35:55.314Z,33.12
2022-10-21T16:38:25.661Z,32.35
2022-10-21T16:40:55.890Z,31.81
2022-10-21T16:43:26.329Z,32.25
2022-10-21T16:45:56.541Z,32.03
2022-10-21T16:48:29.774Z,32.00
2022-10-21T16:51:00.008Z,32.59
2022-10-21T16:53:30.325Z,32.91
2022-10-21T16:56:00.664Z,32.66
2022-10-21T16:58:31.438Z,32.53
2022-10-21T17:01:02.969Z,32.73
2022-10-21T17:03:35.601Z,33.67
2022-10-21T17:06:05.999Z,33.94
2022-10-21T17:08:36.371Z,34.78
2022-10-21T17:11:09.020Z,36.23
2022-10-21T17:13:39.328Z,37.29
2022-10-21T17:16:09.927Z,36.21
2022-10-21T17:18:41.450Z,35.96
2022-10-21T17:21:26.127Z,34.44
2022-10-21T17:23:57.833Z,34.50
2022-10-21T17:26:31.587Z,34.92
2022-10-21T17:29:05.067Z,35.31
2022-10-21T17:31:36.109Z,35.82
2022-10-21T17:34:08.643Z,35.81
2022-10-21T17:36:39.477Z,35.55
2022-10-21T17:39:09.825Z,35.80
2022-10-21T17:41:39.738Z,35.85
2022-10-21T17:44:13.248Z,36.30
2022-10-21T17:46:43.849Z,36.22
2022-10-21T17:49:16.195Z,36.23
2022-10-21T17:51:50.630Z,35.27
2022-10-21T17:54:25.952Z,34.72
2022-10-21T17:57:00.237Z,34.95
2022-10-21T17:59:33.799Z,35.07
2022-10-21T18:02:04.362Z,35.28
2022-10-21T18:04:35.409Z,34.90
2022-10-21T18:07:09.341Z,33.76
2022-10-21T18:09:41.084Z,32.61
2022-10-21T18:12:15.058Z,32.92
2022-10-21T18:14:45.749Z,32.88
2022-10-21T18:17:17.155Z,32.38
2022-10-21T18:19:48.428Z,32.50
2022-10-21T18:22:18.660Z,32.29
2022-10-21T18:24:49.027Z,31.66
2022-10-21T18:27:19.421Z,30.91
2022-10-21T18:29:50.325Z,30.10
2022-10-21T18:32:20.525Z,29.81
2022-10-21T18:34:52.078Z,29.19
2022-10-21T18:37:22.703Z,28.86
2022-10-21T18:39:56.668Z,28.75
2022-10-21T18:42:29.884Z,28.73
2022-10-21T18:45:00.226Z,27.10
2022-10-21T18:47:30.530Z,27.31
2022-10-21T18:50:00.975Z,26.62
2022-10-21T18:52:31.200Z,26.00
2022-10-21T18:55:03.152Z,25.97
2022-10-21T18:57:33.453Z,26.05
2022-10-21T19:00:03.853Z,26.39
2022-10-21T19:02:34.464Z,26.78
2022-10-21T19:05:06.121Z,27.76
2022-10-21T19:07:36.415Z,28.52
2022-10-21T19:10:07.431Z,29.81
2022-10-21T19:12:37.761Z,29.50
2022-10-21T19:15:12.167Z,29.59
2022-10-21T19:17:43.028Z,30.87
2022-10-21T19:20:14.817Z,30.91
2022-10-21T19:22:45.068Z,31.66
2022-10-21T19:25:15.968Z,31.42
2022-10-21T19:27:49.214Z,31.60
2022-10-21T19:30:19.869Z,29.75
2022-10-21T19:32:50.067Z,30.02
2022-10-21T19:35:20.930Z,29.75
2022-10-21T19:37:51.409Z,29.64
2022-10-21T19:40:22.332Z,28.77
2022-10-21T19:42:52.675Z,28.51
2022-10-21T19:45:26.054Z,28.15
2022-10-21T19:47:56.259Z,28.13
2022-10-21T19:50:26.804Z,28.65
2022-10-21T19:52:57.192Z,29.08
2022-10-21T19:55:28.065Z,28.12
2022-10-21T19:57:58.984Z,27.57
2022-10-21T20:00:32.675Z,27.39
2022-10-21T20:03:03.611Z,27.23
2022-10-21T20:05:38.043Z,26.78
2022-10-21T20:08:09.346Z,26.60
2022-10-21T20:10:39.966Z,26.17
2022-10-21T20:13:12.678Z,25.98
2022-10-21T20:15:49.454Z,26.91
2022-10-21T20:18:22.294Z,27.06
2022-10-21T20:20:56.303Z,26.73
2022-10-21T20:23:27.623Z,25.77
2022-10-21T20:26:00.743Z,26.29
2022-10-21T20:28:31.796Z,26.84
2022-10-21T20:31:28.709Z,25.14
2022-10-21T20:33:59.389Z,24.83
2022-10-21T20:36:33.524Z,24.43
2022-10-21T20:39:04.722Z,24.24
2022-10-21T20:41:38.520Z,24.30
2022-10-21T20:44:12.777Z,24.34
2022-10-21T20:46:43.824Z,24.53
2022-10-21T20:49:14.794Z,24.57
2022-10-21T20:51:47.337Z,25.32
2022-10-21T20:54:19.795Z,25.18
2022-10-21T20:56:51.185Z,24.44
2022-10-21T20:59:21.474Z,24.29
2022-10-21T21:01:52.203Z,25.42
2022-10-21T21:04:24.784Z,24.96
2022-10-21T21:06:55.949Z,24.32
2022-10-21T21:09:50.047Z,22.54
2022-10-21T21:12:17.730Z,21.60
2022-10-21T21:14:48.986Z,21.96
2022-10-21T21:17:19.783Z,21.53
2022-10-21T21:19:50.108Z,21.31
2022-10-21T21:22:24.984Z,20.90
2022-10-21T21:24:55.167Z,21.13
2022-10-21T21:27:29.487Z,21.15
2022-10-21T21:30:00.728Z,21.30
2022-10-21T21:32:31.125Z,21.23
2022-10-21T21:35:05.035Z,20.96
2022-10-21T21:37:46.488Z,20.56
2022-10-21T21:40:19.327Z,21.12
2022-10-21T21:42:49.716Z,21.41
2022-10-21T21:45:19.905Z,21.20
2022-10-21T21:47:50.227Z,21.69
2022-10-21T21:50:23.843Z,22.32
2022-10-21T21:52:54.194Z,22.21
2022-10-21T21:55:24.980Z,21.89
2022-10-21T21:57:55.293Z,22.45
2022-10-21T22:00:25.730Z,22.08
2022-10-21T22:02:56.118Z,22.56
2022-10-21T22:05:27.202Z,22.71
2022-10-21T22:07:57.635Z,22.89
2022-10-21T22:10:28.424Z,22.76
2022-10-21T22:12:58.766Z,22.53
2022-10-21T22:15:46.955Z,22.76
2022-10-21T22:18:19.227Z,22.58
2022-10-21T22:20:49.454Z,22.21
2022-10-21T22:23:21.611Z,21.97
2022-10-21T22:25:51.929Z,21.99
2022-10-21T22:28:22.779Z,21.94
2022-10-21T22:31:01.933Z,21.99
2022-10-21T22:33:35.343Z,22.23
2022-10-21T22:36:06.714Z,22.14
2022-10-21T22:38:37.575Z,21.93
2022-10-21T22:41:12.299Z,21.95
2022-10-21T22:43:44.006Z,22.34
2022-10-21T22:46:33.835Z,22.43
2022-10-21T22:49:06.478Z,22.46
2022-10-21T22:51:36.766Z,22.22
2022-10-21T22:54:29.595Z,22.44
2022-10-21T22:57:01.770Z,22.30
2022-10-21T22:59:32.566Z,22.39
2022-10-21T23:02:02.758Z,22.93
2022-10-21T23:04:33.498Z,22.98
2022-10-21T23:07:04.286Z,22.79
2022-10-21T23:09:34.890Z,23.04
2022-10-21T23:12:04.793Z,22.08
2022-10-21T23:14:35.002Z,22.15
2022-10-21T23:17:05.743Z,22.34
2022-10-21T23:19:36.008Z,23.45
2022-10-21T23:22:07.368Z,23.55
2022-10-21T23:24:37.754Z,23.37
2022-10-21T23:27:08.372Z,23.86
2022-10-21T23:29:40.094Z,24.07
2022-10-21T23:32:11.470Z,23.81
2022-10-21T23:34:41.908Z,23.88
2022-10-21T23:37:12.642Z,24.04
2022-10-21T23:39:43.040Z,23.76
2022-10-21T23:42:13.986Z,23.63
2022-10-21T23:44:44.458Z,22.77
2022-10-21T23:47:15.131Z,22.70
2022-10-21T23:49:45.400Z,22.69
2022-10-21T23:52:16.080Z,22.41
2022-10-21T23:54:46.436Z,22.28
2022-10-21T23:57:18.171Z,22.19
2022-10-21T23:59:48.350Z,21.81
